Terminal Aerodrome Forecast
Issued by NWS

Home | Current Version | Previous Version | Text Only | Print | Product List | Glossary On
Versions: 1 2 3 4 5 6 7 8 9 10 11 12 13 14 15 16 17 18 19 20 21 22
000
FTUS41 KBTV 191800 AAA
TAFPBG
TAF AMD
KPBG 191803Z 1918/2018 11005KT P6SM SKC
     FM200600 15005KT P6SM SKC WS020/20030KT
     FM201200 16010G20KT P6SM SCT030=

USA.gov is the U.S. government's official web portal to all federal, state and local government web resources and services.